createdAt,value
2019-02-03T00:00:10.835Z,228.23
2019-02-03T00:02:52.151Z,226.00
2019-02-03T00:05:21.716Z,226.37
2019-02-03T00:07:51.539Z,235.97
2019-02-03T00:10:22.712Z,227.90
2019-02-03T00:12:52.491Z,237.27
2019-02-03T00:15:22.336Z,244.10
2019-02-03T00:17:51.872Z,225.57
2019-02-03T00:20:21.667Z,228.30
2019-02-03T00:22:51.149Z,237.87
2019-02-03T00:25:20.602Z,258.83
2019-02-03T00:27:50.227Z,232.90
2019-02-03T00:30:19.697Z,227.87
2019-02-03T00:32:51.524Z,242.40
2019-02-03T00:35:20.256Z,240.37
2019-02-03T00:37:49.715Z,276.07
2019-02-03T00:40:19.334Z,260.03
2019-02-03T00:42:48.830Z,282.60
2019-02-03T00:45:18.408Z,259.37
2019-02-03T00:47:47.809Z,248.77
2019-02-03T00:50:17.356Z,262.83
2019-02-03T00:52:46.910Z,301.90
2019-02-03T00:55:17.801Z,270.67
2019-02-03T00:57:47.478Z,279.30
2019-02-03T01:00:18.966Z,291.13
2019-02-03T01:02:50.108Z,268.73
2019-02-03T01:05:21.262Z,280.10
2019-02-03T01:07:50.748Z,283.27
2019-02-03T01:10:23.635Z,276.27
2019-02-03T01:12:53.158Z,289.17
2019-02-03T01:15:22.579Z,280.07
2019-02-03T01:17:52.164Z,291.43
2019-02-03T01:20:25.468Z,269.67
2019-02-03T01:22:55.030Z,297.23
2019-02-03T01:25:24.430Z,279.43
2019-02-03T01:27:53.916Z,268.07
2019-02-03T01:30:24.327Z,321.87
2019-02-03T01:32:53.818Z,290.63
2019-02-03T01:35:23.200Z,283.80
2019-02-03T01:37:53.102Z,329.00
2019-02-03T01:40:22.626Z,305.63
2019-02-03T01:42:52.044Z,273.37
2019-02-03T01:45:22.761Z,287.77
2019-02-03T01:47:52.640Z,274.57
2019-02-03T01:50:22.050Z,272.03
2019-02-03T01:52:51.552Z,282.33
2019-02-03T01:55:25.945Z,252.03
2019-02-03T01:57:55.498Z,278.80
2019-02-03T02:00:27.476Z,285.47
2019-02-03T02:02:57.222Z,298.57
2019-02-03T02:05:26.702Z,262.43
2019-02-03T02:07:56.186Z,283.00
2019-02-03T02:10:29.878Z,291.37
2019-02-03T02:12:59.290Z,276.20
2019-02-03T02:15:28.750Z,277.33
2019-02-03T02:17:58.748Z,260.03
2019-02-03T02:20:29.586Z,255.10
2019-02-03T02:22:59.072Z,283.27
2019-02-03T02:25:29.433Z,270.33
2019-02-03T02:27:58.927Z,246.10
2019-02-03T02:30:28.388Z,226.47
2019-02-03T02:32:57.905Z,230.93
2019-02-03T02:35:27.636Z,289.20
2019-02-03T02:38:06.568Z,265.17
2019-02-03T02:40:28.479Z,252.93
2019-02-03T02:42:58.257Z,243.17
2019-02-03T02:45:27.798Z,259.70
2019-02-03T02:47:57.253Z,265.80
2019-02-03T02:50:32.256Z,250.67
2019-02-03T02:53:01.772Z,261.53
2019-02-03T02:55:31.677Z,255.73
2019-02-03T02:58:01.140Z,274.97
2019-02-03T03:00:30.634Z,246.50
2019-02-03T03:03:00.159Z,280.33
2019-02-03T03:05:29.606Z,242.27
2019-02-03T03:07:59.098Z,278.80
2019-02-03T03:10:28.696Z,268.23
2019-02-03T03:12:58.238Z,249.50
2019-02-03T03:15:27.715Z,279.63
2019-02-03T03:17:57.315Z,252.50
2019-02-03T03:20:26.697Z,265.50
2019-02-03T03:22:57.023Z,274.53
2019-02-03T03:25:26.464Z,285.13
2019-02-03T03:27:56.360Z,253.27
2019-02-03T03:30:28.190Z,248.40
2019-02-03T03:32:58.014Z,247.37
2019-02-03T03:35:28.219Z,271.17
2019-02-03T03:37:57.693Z,264.77
2019-02-03T03:40:30.352Z,252.00
2019-02-03T03:42:59.803Z,255.53
2019-02-03T03:45:29.281Z,255.30
2019-02-03T03:47:59.176Z,243.10
2019-02-03T03:50:28.737Z,233.90
2019-02-03T03:52:58.178Z,216.27
2019-02-03T03:55:27.748Z,263.57
2019-02-03T03:57:57.376Z,215.80
2019-02-03T04:00:26.862Z,211.90
2019-02-03T04:02:56.354Z,217.43
2019-02-03T04:05:25.859Z,216.30
2019-02-03T04:07:55.400Z,231.77
2019-02-03T04:10:24.972Z,221.33
2019-02-03T04:12:54.451Z,223.00
2019-02-03T04:15:24.289Z,213.67
2019-02-03T04:17:53.663Z,210.90
2019-02-03T04:20:30.390Z,215.50
2019-02-03T04:22:59.948Z,222.00
2019-02-03T04:25:29.422Z,227.97
2019-02-03T04:27:59.094Z,243.07
2019-02-03T04:30:28.587Z,219.53
2019-02-03T04:32:59.716Z,236.20
2019-02-03T04:35:29.154Z,227.13
2019-02-03T04:37:58.672Z,215.00
2019-02-03T04:40:28.131Z,254.70
2019-02-03T04:42:57.549Z,222.53
2019-02-03T04:45:26.969Z,219.13
2019-02-03T04:47:56.346Z,234.87
2019-02-03T04:50:25.777Z,221.60
2019-02-03T04:52:55.314Z,199.73
2019-02-03T04:55:24.976Z,183.67
2019-02-03T04:57:54.458Z,230.10
2019-02-03T05:00:24.905Z,194.50
2019-02-03T05:02:54.403Z,199.20
2019-02-03T05:05:23.939Z,211.23
2019-02-03T05:07:54.005Z,204.50
2019-02-03T05:10:23.377Z,196.97
2019-02-03T05:12:52.856Z,186.40
2019-02-03T05:15:23.562Z,200.30
2019-02-03T05:17:53.008Z,186.20
2019-02-03T05:20:24.428Z,190.60
2019-02-03T05:22:53.892Z,186.40
2019-02-03T05:25:23.306Z,190.87
2019-02-03T05:27:52.844Z,182.40
2019-02-03T05:30:27.751Z,182.70
2019-02-03T05:32:57.251Z,178.67
2019-02-03T05:35:26.760Z,174.87
2019-02-03T05:37:56.266Z,163.73
2019-02-03T05:40:25.754Z,171.67
2019-02-03T05:42:55.231Z,169.27
2019-02-03T05:45:24.806Z,181.47
2019-02-03T05:47:54.615Z,180.30
2019-02-03T05:50:24.095Z,150.47
2019-02-03T05:52:53.579Z,157.87
2019-02-03T05:55:24.855Z,164.33
2019-02-03T05:57:54.164Z,159.67
2019-02-03T06:00:30.425Z,149.57
2019-02-03T06:02:59.832Z,159.17
2019-02-03T06:05:29.353Z,160.10
2019-02-03T06:07:59.008Z,152.30
2019-02-03T06:10:28.709Z,162.57
2019-02-03T06:12:58.446Z,138.27
2019-02-03T06:15:27.912Z,126.87
2019-02-03T06:17:57.372Z,133.00
2019-02-03T06:20:26.774Z,156.33
2019-02-03T06:22:56.200Z,147.83
2019-02-03T06:25:25.600Z,153.77
2019-02-03T06:27:55.177Z,161.50
2019-02-03T06:30:27.636Z,137.40
2019-02-03T06:32:57.130Z,123.00
2019-02-03T06:35:26.592Z,138.83
2019-02-03T06:37:56.020Z,145.27
2019-02-03T06:40:25.699Z,136.63
2019-02-03T06:42:55.091Z,149.27
2019-02-03T06:45:41.178Z,153.27
2019-02-03T06:48:12.325Z,150.57
2019-02-03T06:50:41.732Z,130.70
2019-02-03T06:53:11.169Z,143.50
2019-02-03T06:55:40.578Z,136.17
2019-02-03T06:58:09.973Z,133.97
2019-02-03T07:00:39.400Z,142.80
2019-02-03T07:03:09.043Z,145.87
2019-02-03T07:05:38.555Z,148.67
2019-02-03T07:08:09.747Z,136.57
2019-02-03T07:10:39.200Z,141.03
2019-02-03T07:13:08.654Z,139.87
2019-02-03T07:15:38.093Z,146.57
2019-02-03T07:18:07.600Z,141.73
2019-02-03T07:20:37.181Z,168.87
2019-02-03T07:23:06.587Z,147.57
2019-02-03T07:25:36.004Z,148.90
2019-02-03T07:28:05.631Z,147.70
2019-02-03T07:30:35.463Z,155.87
2019-02-03T07:33:05.073Z,160.00
2019-02-03T07:35:34.510Z,133.27
2019-02-03T07:38:04.048Z,136.43
2019-02-03T07:40:33.563Z,129.30
2019-02-03T07:43:02.966Z,148.97
2019-02-03T07:45:32.451Z,128.20
2019-02-03T07:48:01.933Z,120.03
2019-02-03T07:50:31.397Z,129.87
2019-02-03T07:53:00.890Z,128.73
2019-02-03T07:55:30.389Z,131.57
2019-02-03T07:58:00.165Z,108.77
2019-02-03T08:00:29.569Z,112.57
2019-02-03T08:02:59.012Z,125.07
2019-02-03T08:05:28.549Z,127.40
2019-02-03T08:07:57.961Z,115.80
2019-02-03T08:10:29.715Z,123.13
2019-02-03T08:12:58.541Z,110.73
2019-02-03T08:15:28.047Z,115.77
2019-02-03T08:17:57.559Z,118.97
2019-02-03T08:20:30.726Z,108.60
2019-02-03T08:23:00.310Z,107.60
2019-02-03T08:25:30.093Z,111.60
2019-02-03T08:27:59.522Z,131.20
2019-02-03T08:30:32.522Z,110.27
2019-02-03T08:33:02.013Z,110.73
2019-02-03T08:35:31.469Z,109.33
2019-02-03T08:38:00.922Z,106.00
2019-02-03T08:40:36.890Z,102.27
2019-02-03T08:43:01.509Z,99.13
2019-02-03T08:45:31.114Z,100.50
2019-02-03T08:48:00.570Z,97.03
2019-02-03T08:50:30.128Z,87.43
2019-02-03T08:52:59.989Z,96.87
2019-02-03T08:55:29.650Z,92.47
2019-02-03T08:57:59.014Z,93.17
2019-02-03T09:00:33.671Z,95.10
2019-02-03T09:03:03.209Z,95.60
2019-02-03T09:05:32.869Z,92.10
2019-02-03T09:08:02.255Z,84.43
2019-02-03T09:10:31.753Z,84.77
2019-02-03T09:13:01.209Z,94.33
2019-02-03T09:15:30.766Z,91.67
2019-02-03T09:18:00.299Z,88.33
2019-02-03T09:20:31.850Z,87.87
2019-02-03T09:23:01.377Z,78.20
2019-02-03T09:25:30.828Z,87.87
2019-02-03T09:28:00.435Z,77.43
2019-02-03T09:30:34.791Z,80.63
2019-02-03T09:33:05.981Z,80.03
2019-02-03T09:35:35.563Z,78.47
2019-02-03T09:38:05.247Z,74.83
2019-02-03T09:40:35.308Z,69.87
2019-02-03T09:43:05.788Z,65.43
2019-02-03T09:45:35.338Z,76.63
2019-02-03T09:48:05.840Z,68.83
2019-02-03T09:50:35.270Z,69.57
2019-02-03T09:53:05.049Z,70.40
2019-02-03T09:55:34.508Z,61.17
2019-02-03T09:58:05.129Z,57.27
2019-02-03T10:00:37.252Z,62.57
2019-02-03T10:03:08.977Z,61.30
2019-02-03T10:05:38.525Z,54.90
2019-02-03T10:08:08.189Z,51.70
2019-02-03T10:10:39.694Z,54.63
2019-02-03T10:13:09.736Z,52.20
2019-02-03T10:15:39.169Z,52.43
2019-02-03T10:18:09.993Z,53.97
2019-02-03T10:20:39.563Z,50.60
2019-02-03T10:23:09.106Z,41.30
2019-02-03T10:25:38.703Z,43.47
2019-02-03T10:28:08.241Z,42.53
2019-02-03T10:30:37.862Z,46.70
2019-02-03T10:33:07.497Z,41.73
2019-02-03T10:35:37.086Z,41.83
2019-02-03T10:38:07.213Z,40.07
2019-02-03T10:40:39.021Z,42.40
2019-02-03T10:43:08.628Z,40.40
2019-02-03T10:45:38.314Z,38.13
2019-02-03T10:48:07.843Z,32.67
2019-02-03T10:50:39.066Z,35.93
2019-02-03T10:53:12.513Z,32.20
2019-02-03T10:55:42.187Z,29.20
2019-02-03T10:58:11.724Z,30.47
2019-02-03T11:00:44.516Z,30.50
2019-02-03T11:03:13.986Z,35.90
2019-02-03T11:05:46.464Z,29.23
2019-02-03T11:08:16.307Z,31.27
2019-02-03T11:10:45.943Z,36.80
2019-02-03T11:13:15.425Z,29.57
2019-02-03T11:15:45.000Z,30.33
2019-02-03T11:18:14.952Z,31.40
2019-02-03T11:20:44.358Z,32.03
2019-02-03T11:23:13.882Z,32.43
2019-02-03T11:25:43.455Z,32.17
2019-02-03T11:28:12.980Z,26.07
2019-02-03T11:30:42.444Z,22.33
2019-02-03T11:33:11.946Z,25.53
2019-02-03T11:35:41.512Z,17.53
2019-02-03T11:38:11.846Z,23.40
2019-02-03T11:40:41.318Z,18.90
2019-02-03T11:43:10.776Z,17.37
2019-02-03T11:45:42.022Z,17.83
2019-02-03T11:48:14.748Z,21.47
2019-02-03T11:50:45.624Z,19.10
2019-02-03T11:53:25.808Z,15.50
2019-02-03T11:55:55.660Z,12.77
2019-02-03T11:58:25.018Z,15.53
2019-02-03T12:00:54.578Z,16.53
2019-02-03T12:03:24.079Z,16.43
2019-02-03T12:05:53.616Z,11.00
2019-02-03T12:08:23.116Z,14.90
2019-02-03T12:10:52.617Z,17.33
2019-02-03T12:13:22.424Z,23.43
2019-02-03T12:15:52.011Z,18.67
2019-02-03T12:18:21.550Z,23.10
2019-02-03T12:20:50.962Z,17.27
2019-02-03T12:23:20.340Z,19.63
2019-02-03T12:25:50.163Z,17.90
2019-02-03T12:28:19.806Z,22.60
2019-02-03T12:30:49.368Z,21.40
2019-02-03T12:33:18.804Z,24.73
2019-02-03T12:35:48.314Z,26.47
2019-02-03T12:38:17.728Z,29.70
2019-02-03T12:40:47.289Z,24.20
2019-02-03T12:43:17.210Z,22.10
2019-02-03T12:45:46.611Z,22.63
2019-02-03T12:48:16.104Z,14.80
2019-02-03T12:50:45.634Z,20.47
2019-02-03T12:53:15.761Z,19.67
2019-02-03T12:55:45.334Z,14.13
2019-02-03T12:58:14.778Z,11.53
2019-02-03T13:00:44.166Z,13.60
2019-02-03T13:03:13.766Z,15.60
2019-02-03T13:05:43.326Z,10.13
2019-02-03T13:08:12.746Z,15.23
2019-02-03T13:10:42.884Z,15.70
2019-02-03T13:13:12.342Z,15.20
2019-02-03T13:15:44.448Z,10.80
2019-02-03T13:18:14.184Z,15.87
2019-02-03T13:20:43.918Z,12.17
2019-02-03T13:23:13.578Z,14.23
2019-02-03T13:25:43.254Z,13.40
2019-02-03T13:28:12.755Z,8.03
2019-02-03T13:30:44.696Z,14.13
2019-02-03T13:33:14.910Z,16.73
2019-02-03T13:35:44.450Z,16.87
2019-02-03T13:38:14.299Z,14.10
2019-02-03T13:40:43.954Z,15.60
2019-02-03T13:43:13.758Z,13.63
2019-02-03T13:45:45.149Z,19.00
2019-02-03T13:48:14.634Z,12.53
2019-02-03T13:50:44.130Z,18.00
2019-02-03T13:53:13.610Z,17.03
2019-02-03T13:55:43.184Z,13.60
2019-02-03T13:58:13.106Z,14.17
2019-02-03T14:00:46.758Z,11.07
2019-02-03T14:03:16.376Z,17.83
2019-02-03T14:05:45.905Z,17.93
2019-02-03T14:08:15.490Z,15.77
2019-02-03T14:10:45.178Z,18.43
2019-02-03T14:13:14.869Z,14.10
2019-02-03T14:15:44.328Z,17.70
2019-02-03T14:18:13.736Z,17.33
2019-02-03T14:20:43.238Z,14.17
2019-02-03T14:23:12.921Z,13.43
2019-02-03T14:25:42.460Z,14.10
2019-02-03T14:28:12.089Z,11.43
2019-02-03T14:30:43.124Z,13.17
2019-02-03T14:33:12.664Z,11.73
2019-02-03T14:35:42.400Z,15.77
2019-02-03T14:38:11.775Z,12.30
2019-02-03T14:40:41.329Z,13.97
2019-02-03T14:43:11.019Z,13.50
2019-02-03T14:45:40.489Z,12.67
2019-02-03T14:48:09.937Z,12.50
2019-02-03T14:50:39.515Z,12.83
2019-02-03T14:53:11.284Z,8.60
2019-02-03T14:55:43.304Z,10.37
2019-02-03T14:58:14.796Z,14.07
2019-02-03T15:00:46.192Z,8.73
2019-02-03T15:03:19.886Z,10.90
2019-02-03T15:05:49.480Z,10.30
2019-02-03T15:08:18.930Z,10.57
2019-02-03T15:10:48.402Z,12.67
2019-02-03T15:13:17.979Z,11.50
2019-02-03T15:15:47.443Z,11.73
2019-02-03T15:18:16.990Z,10.53
2019-02-03T15:20:46.418Z,8.67
2019-02-03T15:23:15.894Z,12.70
2019-02-03T15:25:45.346Z,11.13
2019-02-03T15:28:15.229Z,12.17
2019-02-03T15:30:45.752Z,11.67
2019-02-03T15:33:15.308Z,11.97
2019-02-03T15:35:44.810Z,12.27
2019-02-03T15:38:14.346Z,18.20
2019-02-03T15:40:44.010Z,16.20
2019-02-03T15:43:24.767Z,13.57
2019-02-03T15:45:44.759Z,14.87
2019-02-03T15:48:14.154Z,15.93
2019-02-03T15:50:43.667Z,19.70
2019-02-03T15:53:13.068Z,22.30
2019-02-03T15:55:42.483Z,15.43
2019-02-03T15:58:13.724Z,16.27
2019-02-03T16:00:46.303Z,13.40
2019-02-03T16:03:17.510Z,15.70
2019-02-03T16:05:46.971Z,15.77
2019-02-03T16:08:16.464Z,16.93
2019-02-03T16:10:45.956Z,17.10
2019-02-03T16:13:15.401Z,15.30
2019-02-03T16:15:45.028Z,13.40
2019-02-03T16:18:14.507Z,13.07
2019-02-03T16:20:44.734Z,9.33
2019-02-03T16:23:14.238Z,11.83
2019-02-03T16:25:43.687Z,11.57
2019-02-03T16:28:13.281Z,11.80
2019-02-03T16:30:42.981Z,9.93
2019-02-03T16:33:13.556Z,14.37
2019-02-03T16:35:43.090Z,14.33
2019-02-03T16:38:22.820Z,12.03
2019-02-03T16:40:43.761Z,13.93
2019-02-03T16:43:13.229Z,16.60
2019-02-03T16:45:42.624Z,12.67
2019-02-03T16:48:12.205Z,17.93
2019-02-03T16:50:41.641Z,16.63
2019-02-03T16:53:11.243Z,12.00
2019-02-03T16:55:40.810Z,14.90
2019-02-03T16:58:10.238Z,12.33
2019-02-03T17:00:39.849Z,14.77
2019-02-03T17:03:09.419Z,16.37
2019-02-03T17:05:38.915Z,13.23
2019-02-03T17:08:13.432Z,10.07
2019-02-03T17:10:44.051Z,12.30
2019-02-03T17:13:13.250Z,14.83
2019-02-03T17:15:51.549Z,13.50
2019-02-03T17:18:21.087Z,14.57
2019-02-03T17:21:01.548Z,12.97
2019-02-03T17:23:21.633Z,19.17
2019-02-03T17:25:57.125Z,15.07
2019-02-03T17:28:26.597Z,16.83
2019-02-03T17:30:56.159Z,16.80
2019-02-03T17:33:25.559Z,20.47
2019-02-03T17:35:55.035Z,17.87
2019-02-03T17:38:24.439Z,19.20
2019-02-03T17:40:53.961Z,22.53
2019-02-03T17:43:23.447Z,21.27
2019-02-03T17:45:52.938Z,22.17
2019-02-03T17:48:22.483Z,20.13
2019-02-03T17:50:52.011Z,22.10
2019-02-03T17:53:21.397Z,21.20
2019-02-03T17:55:50.877Z,23.43
2019-02-03T17:58:20.289Z,20.30
2019-02-03T18:00:51.301Z,23.40
2019-02-03T18:03:20.867Z,24.23
2019-02-03T18:05:50.455Z,28.53
2019-02-03T18:08:20.061Z,25.67
2019-02-03T18:10:49.553Z,26.87
2019-02-03T18:13:19.099Z,20.50
2019-02-03T18:15:48.679Z,21.70
2019-02-03T18:18:18.603Z,23.53
2019-02-03T18:20:48.080Z,20.77
2019-02-03T18:23:17.563Z,21.50
2019-02-03T18:25:46.940Z,23.27
2019-02-03T18:28:16.522Z,23.00
2019-02-03T18:30:46.009Z,24.67
2019-02-03T18:33:15.407Z,24.00
2019-02-03T18:35:45.013Z,26.83
2019-02-03T18:38:15.543Z,25.20
2019-02-03T18:40:45.017Z,25.43
2019-02-03T18:43:14.568Z,33.17
2019-02-03T18:45:46.994Z,26.67
2019-02-03T18:48:16.833Z,26.70
2019-02-03T18:50:46.334Z,32.33
2019-02-03T18:53:15.811Z,30.70
2019-02-03T18:55:45.877Z,32.77
2019-02-03T18:58:15.306Z,37.00
2019-02-03T19:00:44.859Z,39.10
2019-02-03T19:03:14.407Z,32.87
2019-02-03T19:05:44.231Z,28.13
2019-02-03T19:08:13.645Z,32.27
2019-02-03T19:10:43.145Z,33.40
2019-02-03T19:13:12.603Z,37.43
2019-02-03T19:15:42.351Z,30.67
2019-02-03T19:18:11.874Z,33.77
2019-02-03T19:20:42.970Z,34.63
2019-02-03T19:23:13.767Z,31.07
2019-02-03T19:25:43.299Z,41.50
2019-02-03T19:28:13.955Z,34.57
2019-02-03T19:30:43.370Z,37.87
2019-02-03T19:33:12.889Z,40.17
2019-02-03T19:35:42.501Z,41.87
2019-02-03T19:38:11.875Z,39.40
2019-02-03T19:40:41.403Z,40.60
2019-02-03T19:43:12.179Z,38.70
2019-02-03T19:45:41.631Z,38.13
2019-02-03T19:48:11.059Z,39.87
2019-02-03T19:50:42.068Z,43.90
2019-02-03T19:53:12.386Z,38.37
2019-02-03T19:55:42.311Z,40.70
2019-02-03T19:58:11.741Z,45.33
2019-02-03T20:00:45.598Z,43.13
2019-02-03T20:03:15.230Z,36.53
2019-02-03T20:05:45.186Z,45.37
2019-02-03T20:08:14.631Z,49.03
2019-02-03T20:10:44.137Z,51.03
2019-02-03T20:13:13.627Z,49.00
2019-02-03T20:15:43.077Z,49.23
2019-02-03T20:18:12.586Z,47.93
2019-02-03T20:20:42.053Z,52.23
2019-02-03T20:23:11.841Z,51.43
2019-02-03T20:25:41.277Z,53.77
2019-02-03T20:28:10.865Z,49.37
2019-02-03T20:30:40.368Z,51.80
2019-02-03T20:33:09.915Z,54.67
2019-02-03T20:35:39.373Z,49.90
2019-02-03T20:38:09.017Z,54.63
2019-02-03T20:40:43.380Z,59.33
2019-02-03T20:43:12.920Z,54.27
2019-02-03T20:45:49.495Z,60.60
2019-02-03T20:48:15.281Z,61.33
2019-02-03T20:50:44.697Z,61.07
2019-02-03T20:53:14.183Z,59.50
2019-02-03T20:55:43.662Z,56.50
2019-02-03T20:58:13.055Z,53.47
2019-02-03T21:00:42.539Z,65.37
2019-02-03T21:03:12.009Z,57.77
2019-02-03T21:05:41.477Z,58.33
2019-02-03T21:08:11.018Z,56.10
2019-02-03T21:10:40.512Z,52.43
2019-02-03T21:13:11.754Z,58.27
2019-02-03T21:15:41.035Z,54.10
2019-02-03T21:18:10.865Z,53.67
2019-02-03T21:20:40.449Z,50.93
2019-02-03T21:23:09.834Z,55.60
2019-02-03T21:25:39.347Z,56.80
2019-02-03T21:28:09.004Z,53.57
2019-02-03T21:30:39.136Z,57.30
2019-02-03T21:33:08.647Z,58.03
2019-02-03T21:35:38.221Z,60.70
2019-02-03T21:38:07.943Z,60.90
2019-02-03T21:40:37.461Z,63.07
2019-02-03T21:43:06.867Z,53.40
2019-02-03T21:45:44.491Z,57.03
2019-02-03T21:48:07.965Z,57.40
2019-02-03T21:50:37.487Z,53.10
2019-02-03T21:53:07.225Z,59.47
2019-02-03T21:55:36.769Z,53.83
2019-02-03T21:58:06.165Z,68.73
2019-02-03T22:00:35.673Z,58.27
2019-02-03T22:03:05.298Z,48.43
2019-02-03T22:05:34.762Z,56.00
2019-02-03T22:08:04.520Z,57.10
2019-02-03T22:10:35.917Z,59.03
2019-02-03T22:13:06.249Z,63.30
2019-02-03T22:15:35.722Z,63.50
2019-02-03T22:18:05.455Z,62.13
2019-02-03T22:20:35.013Z,60.63
2019-02-03T22:23:04.629Z,64.37
2019-02-03T22:25:34.385Z,64.40
2019-02-03T22:28:04.056Z,60.53
2019-02-03T22:30:38.305Z,62.57
2019-02-03T22:33:07.837Z,54.43
2019-02-03T22:35:37.386Z,62.60
2019-02-03T22:38:07.346Z,63.37
2019-02-03T22:40:36.908Z,61.80
2019-02-03T22:43:06.536Z,59.73
2019-02-03T22:45:36.069Z,57.50
2019-02-03T22:48:06.183Z,59.13
2019-02-03T22:50:35.624Z,65.93
2019-02-03T22:53:05.673Z,56.50
2019-02-03T22:55:35.302Z,60.93
2019-02-03T22:58:05.266Z,62.00
2019-02-03T23:00:51.909Z,59.97
2019-02-03T23:03:27.480Z,59.57
2019-02-03T23:05:57.651Z,68.33
2019-02-03T23:08:27.138Z,67.03
2019-02-03T23:10:56.649Z,57.57
2019-02-03T23:13:26.156Z,65.30
2019-02-03T23:15:55.547Z,51.67
2019-02-03T23:18:25.008Z,61.80
2019-02-03T23:20:54.506Z,56.80
2019-02-03T23:23:23.935Z,60.60
2019-02-03T23:25:53.332Z,64.10
2019-02-03T23:28:23.114Z,51.17
2019-02-03T23:30:52.667Z,57.63
2019-02-03T23:33:22.076Z,61.23
2019-02-03T23:35:51.485Z,57.83
2019-02-03T23:38:20.988Z,57.47
2019-02-03T23:40:50.440Z,60.67
2019-02-03T23:43:20.109Z,63.47
2019-02-03T23:45:49.483Z,66.20
2019-02-03T23:48:18.982Z,58.60
2019-02-03T23:50:49.352Z,54.20
2019-02-03T23:53:18.836Z,59.93
2019-02-03T23:55:48.234Z,54.77
2019-02-03T23:58:17.788Z,55.33
